Time;durP1;ratioP1;P1;durP2;ratioP2;P2;SDS_P1;SDS_P2;PMS_P1;PMS_P2;Temp;Humidity;BMP_temperature;BMP_pressure;BME280_temperature;BME280_humidity;BME280_pressure;Samples;Min_cycle;Max_cycle;Signal;HPM_P1;HPM_P2
2022/04/15 00:00:25;;;;;;;22.30;12.82;;;11.90;99.90;;;;;;5052949;28;20063;-58
2022/04/15 00:02:50;;;;;;;25.70;13.20;;;12.10;99.90;;;;;;5052038;28;20531;-56
2022/04/15 00:08:03;;;;;;;20.55;12.55;;;12.30;99.90;;;;;;5053947;28;20071;-60
2022/04/15 00:10:28;;;;;;;21.77;12.20;;;12.30;99.90;;;;;;5056037;28;20020;-58
2022/04/15 00:12:55;;;;;;;22.80;12.95;;;12.40;99.90;;;;;;5057235;28;20061;-57
2022/04/15 00:15:21;;;;;;;20.63;12.60;;;12.40;99.90;;;;;;5049959;28;20017;-58
2022/04/15 00:17:47;;;;;;;19.98;12.20;;;12.30;99.90;;;;;;5053375;28;20595;-57
2022/04/15 00:20:13;;;;;;;23.50;13.15;;;12.10;99.90;;;;;;5051585;28;20036;-59
2022/04/15 00:22:39;;;;;;;18.10;12.55;;;12.00;99.90;;;;;;5048293;28;20025;-57
2022/04/15 00:25:06;;;;;;;21.40;13.05;;;11.90;99.90;;;;;;5051072;28;20032;-56
2022/04/15 00:27:31;;;;;;;19.65;13.80;;;11.70;99.90;;;;;;5052036;28;21887;-57
2022/04/15 00:29:57;;;;;;;18.92;13.02;;;11.70;99.90;;;;;;5050573;28;20096;-58
2022/04/15 00:32:23;;;;;;;20.42;12.20;;;11.60;99.90;;;;;;5056877;28;20376;-59
2022/04/15 00:34:48;;;;;;;24.88;13.38;;;11.50;99.90;;;;;;5054418;28;20089;-55
2022/04/15 00:37:14;;;;;;;26.02;13.60;;;11.40;99.90;;;;;;5055749;28;20407;-56
2022/04/15 00:39:45;;;;;;;22.75;13.73;;;11.30;99.90;;;;;;5052430;28;20086;-57
2022/04/15 00:42:10;;;;;;;23.33;13.20;;;11.30;99.90;;;;;;5049295;28;20479;-58
2022/04/15 00:44:36;;;;;;;25.65;14.68;;;11.20;99.90;;;;;;5050684;28;20029;-56
2022/04/15 00:47:27;;;;;;;18.98;13.38;;;11.20;99.90;;;;;;5047316;28;20063;-57
2022/04/15 00:49:53;;;;;;;27.55;14.85;;;11.10;99.90;;;;;;5052702;28;20056;-54
2022/04/15 00:52:21;;;;;;;27.67;14.10;;;11.10;99.90;;;;;;5053067;28;20052;-56
2022/04/15 00:54:50;;;;;;;25.60;13.73;;;11.10;99.90;;;;;;5050508;28;20052;-56
2022/04/15 00:57:21;;;;;;;27.50;14.57;;;11.10;99.90;;;;;;5048413;28;20033;-57
2022/04/15 00:59:48;;;;;;;25.52;12.93;;;11.00;99.90;;;;;;5053046;28;20048;-59
2022/04/15 01:02:17;;;;;;;22.17;14.02;;;10.90;99.90;;;;;;5055876;28;20017;-57
2022/04/15 01:04:44;;;;;;;22.90;13.93;;;10.90;99.90;;;;;;5059145;28;20084;-59
2022/04/15 01:07:14;;;;;;;24.25;14.18;;;10.90;99.90;;;;;;5051669;28;20047;-58
2022/04/15 01:09:43;;;;;;;26.17;15.25;;;10.90;99.90;;;;;;5052478;28;20017;-58
2022/04/15 01:12:09;;;;;;;27.58;14.63;;;10.80;99.90;;;;;;5054152;28;20047;-57
2022/04/15 01:14:38;;;;;;;24.83;14.90;;;10.70;99.90;;;;;;5051161;28;20472;-59
2022/04/15 01:17:04;;;;;;;23.73;14.70;;;10.60;99.90;;;;;;5054131;28;20028;-59
2022/04/15 01:19:29;;;;;;;26.98;14.60;;;10.60;99.90;;;;;;5045999;28;20386;-59
2022/04/15 01:21:56;;;;;;;30.95;16.00;;;10.50;99.90;;;;;;5052414;28;20429;-61
2022/04/15 01:24:23;;;;;;;37.28;16.30;;;10.40;99.90;;;;;;5054195;28;20388;-60
2022/04/15 01:26:49;;;;;;;29.13;15.43;;;10.40;99.90;;;;;;5054818;28;20028;-60
2022/04/15 01:29:15;;;;;;;27.05;14.57;;;10.30;99.90;;;;;;5057861;28;20028;-61
2022/04/15 01:31:41;;;;;;;29.10;15.35;;;10.30;99.90;;;;;;5051413;28;20021;-58
2022/04/15 01:34:06;;;;;;;25.35;14.18;;;10.30;99.90;;;;;;5058276;28;20041;-58
2022/04/15 01:36:32;;;;;;;30.08;15.43;;;10.30;99.90;;;;;;5049495;28;20068;-61
2022/04/15 01:38:58;;;;;;;24.75;14.63;;;10.40;99.90;;;;;;5054325;28;20025;-59
2022/04/15 01:41:24;;;;;;;25.20;16.17;;;10.40;99.90;;;;;;5048474;28;20024;-59
2022/04/15 01:43:50;;;;;;;28.23;16.77;;;10.30;99.90;;;;;;5058631;28;20013;-58
2022/04/15 01:46:16;;;;;;;31.48;15.23;;;10.20;99.90;;;;;;5058007;28;20021;-57
2022/04/15 01:48:41;;;;;;;28.45;15.10;;;10.20;99.90;;;;;;5061543;28;20025;-61
2022/04/15 01:51:07;;;;;;;31.70;16.15;;;10.10;99.90;;;;;;5052685;28;20527;-59
2022/04/15 01:53:32;;;;;;;28.63;16.50;;;10.10;99.90;;;;;;5066396;28;20029;-61
2022/04/15 01:55:58;;;;;;;26.50;15.63;;;10.20;99.90;;;;;;5063361;28;20046;-61
2022/04/15 01:58:23;;;;;;;31.83;16.90;;;10.20;99.90;;;;;;5062033;28;20396;-62
2022/04/15 02:00:49;;;;;;;33.55;16.48;;;10.20;99.90;;;;;;5057565;28;20472;-60
2022/04/15 02:03:14;;;;;;;33.72;17.30;;;10.10;99.90;;;;;;5058025;28;20087;-61
2022/04/15 02:05:40;;;;;;;32.53;17.00;;;10.00;99.90;;;;;;5048180;28;20036;-59
2022/04/15 02:08:06;;;;;;;35.67;17.33;;;10.00;99.90;;;;;;5058086;28;20083;-60
2022/04/15 02:10:31;;;;;;;35.50;17.40;;;10.10;99.90;;;;;;5047770;28;20458;-54
2022/04/15 02:12:57;;;;;;;29.17;16.65;;;10.00;99.90;;;;;;5052492;28;20029;-55
2022/04/15 02:15:22;;;;;;;28.50;17.50;;;9.90;99.90;;;;;;5051763;28;20043;-56
2022/04/15 02:17:48;;;;;;;31.52;17.30;;;9.80;99.90;;;;;;5053096;28;20021;-57
2022/04/15 02:20:13;;;;;;;35.45;18.05;;;9.70;99.90;;;;;;5053336;28;20113;-57
2022/04/15 02:22:39;;;;;;;31.67;17.52;;;9.70;99.90;;;;;;5047658;28;20017;-58
2022/04/15 02:25:05;;;;;;;36.65;17.67;;;9.70;99.90;;;;;;5049579;28;20490;-61
2022/04/15 02:27:31;;;;;;;29.85;15.88;;;9.80;99.90;;;;;;5048075;28;20032;-60
2022/04/15 02:29:56;;;;;;;28.85;16.88;;;9.80;99.90;;;;;;5049310;28;20021;-57
2022/04/15 02:32:25;;;;;;;30.90;17.65;;;9.90;99.90;;;;;;5053996;28;20570;-61
2022/04/15 02:34:51;;;;;;;30.73;18.20;;;9.80;99.90;;;;;;5046499;28;20097;-60
2022/04/15 02:37:17;;;;;;;36.53;18.58;;;9.80;99.90;;;;;;5052455;28;20112;-61
2022/04/15 02:39:42;;;;;;;32.85;18.85;;;9.90;99.90;;;;;;5050055;28;20028;-61
2022/04/15 02:42:09;;;;;;;34.22;17.40;;;9.80;99.90;;;;;;5043104;28;20075;-59
2022/04/15 02:44:37;;;;;;;28.73;16.45;;;9.80;99.90;;;;;;5055479;28;20025;-60
2022/04/15 02:47:03;;;;;;;39.83;18.98;;;9.70;99.90;;;;;;5054509;28;20037;-58
2022/04/15 02:49:29;;;;;;;36.90;18.83;;;9.60;99.90;;;;;;5050544;28;20077;-59
2022/04/15 02:51:56;;;;;;;32.17;17.60;;;9.60;99.90;;;;;;5049734;28;20032;-61
2022/04/15 02:54:21;;;;;;;44.78;19.88;;;9.60;99.90;;;;;;5048066;28;20025;-58
2022/04/15 02:56:47;;;;;;;42.55;18.58;;;9.50;99.90;;;;;;5049848;28;20028;-57
2022/04/15 02:59:13;;;;;;;40.38;21.05;;;9.40;99.90;;;;;;5057020;28;20021;-59
2022/04/15 03:01:38;;;;;;;34.60;19.30;;;9.30;99.90;;;;;;5055387;28;20445;-61
2022/04/15 03:04:04;;;;;;;39.55;19.80;;;9.20;99.90;;;;;;5051351;28;20033;-58
2022/04/15 03:06:29;;;;;;;45.35;21.95;;;9.10;99.90;;;;;;5047875;28;20069;-59
2022/04/15 03:08:55;;;;;;;38.15;22.38;;;9.00;99.90;;;;;;5050528;28;20025;-61
2022/04/15 03:11:20;;;;;;;46.05;22.35;;;9.00;99.90;;;;;;5051043;28;20029;-61
2022/04/15 03:13:46;;;;;;;46.05;23.95;;;8.90;99.90;;;;;;5054478;28;20031;-61
2022/04/15 03:16:12;;;;;;;39.35;21.27;;;8.90;99.90;;;;;;5049316;28;20555;-59
2022/04/15 03:18:37;;;;;;;40.88;23.27;;;8.80;99.90;;;;;;5055754;28;20040;-61
2022/04/15 03:21:03;;;;;;;48.25;23.38;;;8.80;99.90;;;;;;5049172;28;20031;-60
2022/04/15 03:23:29;;;;;;;47.05;24.33;;;8.80;99.90;;;;;;5062753;28;20024;-62
2022/04/15 03:25:55;;;;;;;40.38;21.60;;;8.80;99.90;;;;;;5049950;28;20055;-59
2022/04/15 03:28:20;;;;;;;43.60;22.85;;;8.80;99.90;;;;;;5052983;28;20013;-62
2022/04/15 03:30:46;;;;;;;45.58;23.45;;;8.80;99.90;;;;;;5051165;28;20020;-58
2022/04/15 03:33:11;;;;;;;38.13;21.63;;;8.70;99.90;;;;;;5049485;28;20075;-60
2022/04/15 03:35:37;;;;;;;50.75;24.30;;;8.70;99.90;;;;;;5054084;28;20048;-56
2022/04/15 03:38:02;;;;;;;51.17;23.63;;;8.60;99.90;;;;;;5054593;28;20056;-55
2022/04/15 03:40:28;;;;;;;45.05;25.20;;;8.50;99.90;;;;;;5054834;28;20025;-57
2022/04/15 03:42:55;;;;;;;55.90;27.08;;;8.40;99.90;;;;;;5052868;28;20229;-60
2022/04/15 03:45:22;;;;;;;43.97;23.05;;;8.30;99.90;;;;;;5050544;28;20112;-59
2022/04/15 03:47:52;;;;;;;44.15;24.40;;;8.30;99.90;;;;;;5057614;28;20051;-56
2022/04/15 03:50:18;;;;;;;45.08;24.17;;;8.20;99.90;;;;;;5051669;28;20353;-58
2022/04/15 03:52:46;;;;;;;44.90;22.88;;;8.30;99.90;;;;;;5052512;28;20089;-57
2022/04/15 03:55:16;;;;;;;42.80;24.88;;;8.30;99.90;;;;;;5050624;28;20251;-57
2022/04/15 03:57:43;;;;;;;51.13;25.05;;;8.20;99.90;;;;;;5052288;28;20037;-54
2022/04/15 04:00:17;;;;;;;38.92;24.05;;;8.20;99.90;;;;;;5049994;28;20384;-54
2022/04/15 04:02:44;;;;;;;50.05;24.13;;;8.10;99.90;;;;;;5052749;28;20468;-57
2022/04/15 04:05:10;;;;;;;65.35;26.23;;;8.00;99.90;;;;;;5043980;28;20048;-60
2022/04/15 04:07:36;;;;;;;53.20;24.20;;;8.00;99.90;;;;;;5059388;28;20607;-54
2022/04/15 04:10:02;;;;;;;50.03;25.30;;;7.90;99.90;;;;;;5053715;28;20032;-55
2022/04/15 04:12:34;;;;;;;45.88;24.42;;;7.90;99.90;;;;;;5060339;28;20025;-57
2022/04/15 04:15:01;;;;;;;47.78;24.13;;;7.90;99.90;;;;;;5049052;28;20124;-58
2022/04/15 04:17:26;;;;;;;42.45;23.90;;;7.90;99.90;;;;;;5051088;28;20060;-57
2022/04/15 04:19:52;;;;;;;59.38;25.35;;;7.90;99.90;;;;;;5048657;28;20099;-58
2022/04/15 04:22:17;;;;;;;45.03;25.27;;;7.90;99.90;;;;;;5052192;28;20036;-54
2022/04/15 04:24:43;;;;;;;47.17;25.50;;;8.00;99.90;;;;;;5054232;28;20134;-58
2022/04/15 04:27:08;;;;;;;50.17;25.75;;;8.00;99.90;;;;;;5047094;28;20028;-57
2022/04/15 04:29:34;;;;;;;59.40;25.60;;;8.00;99.90;;;;;;5049845;28;20016;-57
2022/04/15 04:31:59;;;;;;;49.83;26.08;;;8.00;99.90;;;;;;5054930;28;20021;-60
2022/04/15 04:34:25;;;;;;;51.72;25.60;;;8.10;99.90;;;;;;5045488;28;20032;-54
2022/04/15 04:36:50;;;;;;;43.63;24.33;;;8.10;99.90;;;;;;5048874;28;20029;-59
2022/04/15 04:39:16;;;;;;;44.50;25.65;;;8.10;99.90;;;;;;5048295;28;20864;-59
2022/04/15 04:41:41;;;;;;;52.72;27.00;;;8.10;99.90;;;;;;5053064;28;20029;-59
2022/04/15 04:44:07;;;;;;;44.72;25.75;;;8.00;99.90;;;;;;5046772;28;20078;-59
2022/04/15 04:46:34;;;;;;;54.33;28.60;;;8.00;99.90;;;;;;5045889;28;20017;-61
2022/04/15 04:48:59;;;;;;;57.15;28.48;;;8.10;99.90;;;;;;5058340;28;20469;-59
2022/04/15 04:51:25;;;;;;;60.22;28.73;;;8.10;99.90;;;;;;5050878;28;20041;-59
2022/04/15 04:53:51;;;;;;;62.70;31.20;;;8.20;99.90;;;;;;5053587;28;20030;-60
2022/04/15 04:56:16;;;;;;;60.28;30.52;;;8.20;99.90;;;;;;5052907;28;20024;-60
2022/04/15 04:58:42;;;;;;;55.22;31.42;;;8.30;99.90;;;;;;5049449;28;20507;-60
2022/04/15 05:01:08;;;;;;;61.50;30.95;;;8.30;99.90;;;;;;5041595;28;20103;-60
2022/04/15 05:03:33;;;;;;;57.53;32.30;;;8.30;99.90;;;;;;5051154;28;20100;-59
2022/04/15 05:05:59;;;;;;;62.80;29.65;;;8.30;99.90;;;;;;5051133;28;20032;-60
2022/04/15 05:08:25;;;;;;;58.28;27.73;;;8.30;99.90;;;;;;5054060;28;20553;-57
2022/04/15 05:10:50;;;;;;;56.20;26.95;;;8.20;99.90;;;;;;5051959;28;20021;-60
2022/04/15 05:13:16;;;;;;;58.22;28.42;;;8.20;99.90;;;;;;5052027;28;20428;-60
2022/04/15 05:15:41;;;;;;;55.53;28.52;;;8.20;99.90;;;;;;5051751;28;20041;-60
2022/04/15 05:18:07;;;;;;;56.92;31.52;;;8.20;99.90;;;;;;5049840;28;20367;-61
2022/04/15 05:20:32;;;;;;;64.55;33.92;;;8.20;99.90;;;;;;5050738;28;20079;-60
2022/04/15 05:22:58;;;;;;;67.57;33.42;;;8.20;99.90;;;;;;5050724;28;20486;-60
2022/04/15 05:25:24;;;;;;;67.75;34.90;;;8.20;99.90;;;;;;5051778;28;20036;-60
2022/04/15 05:27:50;;;;;;;63.70;34.70;;;8.30;99.90;;;;;;5050967;28;20414;-60
2022/04/15 05:30:16;;;;;;;63.80;33.60;;;8.30;99.90;;;;;;5051109;28;20360;-59
2022/04/15 05:32:41;;;;;;;66.93;36.53;;;8.40;99.90;;;;;;5054653;28;20070;-61
2022/04/15 05:35:07;;;;;;;69.57;34.85;;;8.50;99.90;;;;;;5050119;28;20037;-61
2022/04/15 05:37:33;;;;;;;68.32;34.28;;;8.60;99.90;;;;;;5051837;28;20033;-60
2022/04/15 05:39:58;;;;;;;74.95;35.80;;;8.80;99.90;;;;;;5052225;28;20024;-59
2022/04/15 05:42:28;;;;;;;66.90;33.92;;;8.80;99.90;;;;;;5054993;28;20025;-60
2022/04/15 05:44:53;;;;;;;67.22;38.47;;;8.90;99.90;;;;;;5050530;28;20024;-59
2022/04/15 05:47:19;;;;;;;77.80;39.00;;;9.00;99.90;;;;;;5047752;28;20041;-58
2022/04/15 05:49:44;;;;;;;80.22;41.10;;;9.20;99.90;;;;;;5053611;28;21327;-61
2022/04/15 05:52:10;;;;;;;75.38;40.10;;;9.40;99.90;;;;;;5050259;28;20119;-58
2022/04/15 05:54:35;;;;;;;82.32;41.50;;;9.50;99.90;;;;;;5055340;28;20017;-58
2022/04/15 05:57:01;;;;;;;73.85;39.25;;;9.60;99.90;;;;;;5055083;28;20025;-55
2022/04/15 05:59:26;;;;;;;70.03;36.55;;;9.70;99.90;;;;;;5031385;28;20033;-57
2022/04/15 06:01:52;;;;;;;70.40;36.33;;;9.80;99.90;;;;;;5044292;28;20454;-57
2022/04/15 06:04:18;;;;;;;69.65;36.30;;;9.90;99.90;;;;;;5044830;28;20416;-55
2022/04/15 06:06:44;;;;;;;74.10;36.40;;;10.00;99.90;;;;;;5050316;28;20024;-57
2022/04/15 06:09:09;;;;;;;70.10;36.42;;;10.10;99.90;;;;;;5045765;28;20098;-56
2022/04/15 06:11:36;;;;;;;73.25;36.00;;;10.20;99.90;;;;;;5053420;28;20029;-56
2022/04/15 06:14:03;;;;;;;67.40;35.55;;;10.20;99.90;;;;;;5047649;28;20021;-56
2022/04/15 06:16:32;;;;;;;71.88;36.15;;;10.30;99.90;;;;;;5043650;28;20115;-59
2022/04/15 06:18:58;;;;;;;66.60;37.58;;;10.30;99.90;;;;;;5056921;28;20025;-54
2022/04/15 06:21:24;;;;;;;75.85;36.92;;;10.30;99.90;;;;;;5046581;28;20021;-55
2022/04/15 06:23:50;;;;;;;65.22;34.95;;;10.40;99.90;;;;;;5060119;28;20078;-54
2022/04/15 06:26:15;;;;;;;65.07;35.70;;;10.50;99.90;;;;;;5047765;28;20435;-58
2022/04/15 06:28:41;;;;;;;61.75;33.05;;;10.60;99.90;;;;;;5050032;28;20051;-57
2022/04/15 06:31:06;;;;;;;57.50;32.75;;;10.60;99.90;;;;;;5051794;28;20117;-57
2022/04/15 06:33:32;;;;;;;60.45;33.60;;;10.70;99.90;;;;;;5062776;28;20024;-58
2022/04/15 06:35:59;;;;;;;68.72;35.33;;;10.70;99.90;;;;;;5053053;28;20028;-58
2022/04/15 06:38:25;;;;;;;60.63;33.00;;;10.70;99.90;;;;;;5052019;28;20021;-57
2022/04/15 06:40:50;;;;;;;57.70;34.05;;;10.80;99.90;;;;;;5052595;28;20043;-55
2022/04/15 06:43:16;;;;;;;62.53;32.67;;;10.80;99.90;;;;;;5045591;28;20021;-59
2022/04/15 06:45:41;;;;;;;64.85;35.22;;;10.90;99.90;;;;;;5051186;28;20013;-59
2022/04/15 06:48:08;;;;;;;60.00;33.65;;;11.00;99.90;;;;;;5046274;28;20022;-58
2022/04/15 06:50:34;;;;;;;65.90;34.78;;;11.00;99.90;;;;;;5052557;28;20097;-54
2022/04/15 06:52:59;;;;;;;58.90;33.15;;;11.10;99.90;;;;;;5049600;28;20491;-59
2022/04/15 06:55:25;;;;;;;58.22;33.50;;;11.20;99.90;;;;;;5051382;28;20496;-57
2022/04/15 06:57:50;;;;;;;57.25;33.53;;;11.20;99.90;;;;;;5048959;28;20079;-58
2022/04/15 07:00:16;;;;;;;61.58;33.10;;;11.30;99.90;;;;;;5053857;28;20055;-59
2022/04/15 07:02:42;;;;;;;54.80;29.92;;;11.30;99.90;;;;;;5054622;28;20029;-56
2022/04/15 07:05:09;;;;;;;59.05;29.88;;;11.30;99.90;;;;;;5056128;28;20364;-59
2022/04/15 07:07:39;;;;;;;56.47;30.65;;;11.30;99.90;;;;;;5046306;28;20167;-58
2022/04/15 07:10:10;;;;;;;54.00;30.63;;;11.40;99.90;;;;;;5050224;28;20096;-57
2022/04/15 07:12:36;;;;;;;52.78;28.67;;;11.50;99.90;;;;;;5049358;28;20037;-57
2022/04/15 07:15:03;;;;;;;52.85;29.45;;;11.50;99.90;;;;;;5051691;28;20545;-57
2022/04/15 07:17:29;;;;;;;47.25;27.80;;;11.60;99.90;;;;;;5031643;28;20025;-57
2022/04/15 07:19:54;;;;;;;57.13;29.30;;;11.60;99.90;;;;;;5052682;28;20361;-57
2022/04/15 07:22:21;;;;;;;47.83;26.52;;;11.70;99.90;;;;;;5051482;28;20062;-57
2022/04/15 07:24:48;;;;;;;49.20;28.10;;;11.70;99.90;;;;;;5051032;28;20443;-58
2022/04/15 07:27:14;;;;;;;47.58;27.42;;;11.70;99.90;;;;;;5049578;28;20069;-58
2022/04/15 07:29:40;;;;;;;48.78;27.00;;;11.80;99.90;;;;;;5047944;28;20040;-59
2022/04/15 07:32:06;;;;;;;50.78;28.73;;;11.80;99.90;;;;;;5055851;28;20020;-58
2022/04/15 07:34:31;;;;;;;41.95;26.90;;;11.80;99.90;;;;;;5047676;28;20032;-56
2022/04/15 07:36:59;;;;;;;48.70;26.15;;;11.90;99.90;;;;;;5048232;28;20107;-52
2022/04/15 07:39:25;;;;;;;45.00;27.35;;;12.00;99.90;;;;;;5049185;28;20091;-55
2022/04/15 07:41:51;;;;;;;48.00;28.42;;;12.00;99.90;;;;;;5048682;28;20361;-55
2022/04/15 07:44:17;;;;;;;43.33;26.70;;;12.00;99.90;;;;;;5048742;28;20027;-52
2022/04/15 07:46:43;;;;;;;49.03;27.15;;;12.10;99.90;;;;;;5048892;28;20466;-57
2022/04/15 07:49:10;;;;;;;43.20;25.60;;;12.20;99.90;;;;;;5052026;28;20029;-52
2022/04/15 07:51:37;;;;;;;50.13;26.23;;;12.20;99.90;;;;;;5049804;28;20107;-51
2022/04/15 07:54:04;;;;;;;72.95;38.97;;;12.20;99.90;;;;;;5043851;28;20040;-54
2022/04/15 07:56:30;;;;;;;69.63;41.33;;;12.20;99.90;;;;;;5054360;28;20094;-51
2022/04/15 07:58:56;;;;;;;79.90;41.72;;;12.20;99.90;;;;;;5054949;28;20040;-51
2022/04/15 08:01:21;;;;;;;85.60;46.63;;;12.20;99.90;;;;;;5049801;28;20055;-56
2022/04/15 08:03:48;;;;;;;80.05;42.40;;;12.30;99.90;;;;;;5048801;28;20013;-54
2022/04/15 08:06:15;;;;;;;83.30;45.78;;;12.30;99.90;;;;;;5049476;28;20072;-54
2022/04/15 08:08:41;;;;;;;89.60;48.72;;;12.30;99.90;;;;;;5052577;28;20017;-50
2022/04/15 08:11:07;;;;;;;90.00;49.72;;;12.20;99.90;;;;;;5058311;28;20035;-55
2022/04/15 08:13:32;;;;;;;97.50;49.38;;;12.10;99.90;;;;;;5053395;28;20063;-57
2022/04/15 08:15:58;;;;;;;96.93;49.03;;;12.10;99.90;;;;;;5058083;28;20044;-57
2022/04/15 08:18:24;;;;;;;104.57;51.25;;;12.20;99.90;;;;;;5050682;28;20089;-57
2022/04/15 08:20:52;;;;;;;96.00;51.55;;;12.40;99.90;;;;;;5050872;28;20017;-54
2022/04/15 08:23:18;;;;;;;102.82;52.65;;;12.40;99.90;;;;;;5050532;28;20450;-58
2022/04/15 08:25:44;;;;;;;95.03;51.95;;;12.30;99.90;;;;;;5047759;28;20063;-56
2022/04/15 08:28:10;;;;;;;104.68;56.13;;;12.10;99.90;;;;;;5050156;28;20032;-56
2022/04/15 08:30:37;;;;;;;128.25;60.67;;;11.90;99.90;;;;;;5051159;28;20017;-54
2022/04/15 08:33:05;;;;;;;116.10;56.63;;;11.70;99.90;;;;;;5054892;28;20078;-54
2022/04/15 08:35:31;;;;;;;128.70;60.58;;;11.60;99.90;;;;;;5048086;28;20025;-52
2022/04/15 08:37:58;;;;;;;120.65;58.55;;;11.60;99.90;;;;;;5049647;28;20086;-51
2022/04/15 08:40:27;;;;;;;110.43;52.63;;;11.40;99.90;;;;;;5047097;28;20052;-60
2022/04/15 08:42:53;;;;;;;118.85;55.63;;;11.40;99.90;;;;;;5048790;28;20035;-53
2022/04/15 08:45:21;;;;;;;120.32;57.90;;;11.40;99.90;;;;;;5042720;28;20100;-56
2022/04/15 08:47:48;;;;;;;122.63;55.78;;;11.40;99.90;;;;;;5048983;28;20108;-52
2022/04/15 08:50:14;;;;;;;105.20;53.58;;;11.30;99.90;;;;;;5047922;28;20033;-53
2022/04/15 08:52:40;;;;;;;106.55;50.10;;;11.50;99.90;;;;;;5057947;28;20024;-56
2022/04/15 08:55:06;;;;;;;117.63;52.53;;;11.50;99.90;;;;;;5050586;28;20020;-54
2022/04/15 08:57:32;;;;;;;115.45;50.35;;;11.40;99.90;;;;;;5053236;28;20491;-50
2022/04/15 08:59:58;;;;;;;102.43;48.70;;;11.20;99.90;;;;;;5050257;28;20037;-52
2022/04/15 09:02:33;;;;;;;107.88;46.70;;;11.20;99.90;;;;;;5059196;28;20029;-55
2022/04/15 09:05:03;;;;;;;90.80;40.25;;;11.30;99.90;;;;;;5051341;28;20547;-53
2022/04/15 09:07:30;;;;;;;82.10;39.33;;;11.40;99.90;;;;;;5059549;28;20479;-55
2022/04/15 09:09:57;;;;;;;90.28;43.97;;;11.40;99.90;;;;;;5055076;28;20017;-53
2022/04/15 09:12:29;;;;;;;81.28;38.58;;;11.30;99.90;;;;;;5050387;28;20516;-54
2022/04/15 09:14:59;;;;;;;79.82;38.70;;;11.30;99.90;;;;;;5052525;28;20427;-53
2022/04/15 09:17:28;;;;;;;75.75;33.70;;;11.40;99.90;;;;;;5046966;28;20038;-54
2022/04/15 09:19:53;;;;;;;80.38;35.35;;;11.50;99.90;;;;;;5045584;28;20025;-53
2022/04/15 09:22:19;;;;;;;74.75;35.25;;;11.60;99.90;;;;;;5054818;28;20048;-51
2022/04/15 09:24:47;;;;;;;76.22;34.95;;;11.70;99.90;;;;;;5050181;28;20051;-51
2022/04/15 09:27:14;;;;;;;72.28;34.58;;;11.60;99.90;;;;;;5053660;28;20041;-55
2022/04/15 09:29:40;;;;;;;64.28;32.67;;;11.40;99.90;;;;;;5047326;28;20070;-54
2022/04/15 09:32:08;;;;;;;63.42;32.20;;;11.50;99.90;;;;;;5030419;28;20029;-53
2022/04/15 09:34:34;;;;;;;68.72;33.90;;;11.50;99.90;;;;;;5047627;28;20033;-52
2022/04/15 09:37:06;;;;;;;70.00;36.22;;;11.40;99.90;;;;;;5049207;28;20025;-54
2022/04/15 09:39:31;;;;;;;77.90;35.92;;;11.50;99.90;;;;;;5048651;28;20017;-52
2022/04/15 09:41:57;;;;;;;74.15;35.63;;;11.80;99.90;;;;;;5056386;28;20036;-52
2022/04/15 09:44:31;;;;;;;72.80;35.47;;;12.00;99.90;;;;;;5049656;28;20070;-53
2022/04/15 09:46:57;;;;;;;;;;;12.00;99.90;;;;;;5047722;28;20020;-53
2022/04/15 09:49:25;;;;;;;62.58;31.08;;;12.00;99.90;;;;;;5052567;28;19912;-53
2022/04/15 09:51:51;;;;;;;68.57;32.95;;;12.20;99.90;;;;;;5052553;28;20102;-57
2022/04/15 09:54:27;;;;;;;75.85;35.97;;;12.60;99.90;;;;;;5049726;28;20072;-52
2022/04/15 09:56:58;;;;;;;68.22;33.00;;;12.60;99.90;;;;;;5049247;28;20074;-53
2022/04/15 09:59:26;;;;;;;68.07;34.22;;;12.50;99.90;;;;;;5054926;28;20162;-54
2022/04/15 10:01:57;;;;;;;54.35;30.88;;;12.60;99.90;;;;;;5048392;28;20048;-54
2022/04/15 10:04:26;;;;;;;53.90;29.85;;;12.70;99.90;;;;;;5060433;28;20056;-52
2022/04/15 10:06:53;;;;;;;57.80;31.02;;;12.70;99.90;;;;;;5059068;28;20054;-52
2022/04/15 10:09:19;;;;;;;53.58;29.92;;;12.80;99.90;;;;;;5050813;28;20048;-54
2022/04/15 10:11:47;;;;;;;57.85;30.52;;;12.50;99.90;;;;;;5055574;28;20025;-59
2022/04/15 10:14:15;;;;;;;56.63;30.98;;;12.60;99.90;;;;;;5045649;28;20025;-59
2022/04/15 10:16:42;;;;;;;49.63;30.33;;;13.10;99.90;;;;;;5052422;28;20025;-57
2022/04/15 10:19:09;;;;;;;48.05;29.73;;;13.30;99.90;;;;;;5054498;28;20029;-55
2022/04/15 10:21:45;;;;;;;53.30;28.45;;;13.30;99.90;;;;;;5057467;28;20025;-56
2022/04/15 10:24:12;;;;;;;45.17;27.75;;;13.50;99.90;;;;;;5057723;28;20111;-55
2022/04/15 10:26:45;;;;;;;45.05;26.50;;;13.50;99.90;;;;;;5055110;28;20104;-57
2022/04/15 10:41:23;;;;;;;36.28;25.17;;;13.80;99.90;;;;;;5134849;27;20403;-55
2022/04/15 10:43:59;;;;;;;31.27;23.00;;;14.60;99.90;;;;;;5120690;27;20039;-56
2022/04/15 10:46:32;;;;;;;33.80;22.98;;;14.70;99.90;;;;;;5120710;27;20030;-54
2022/04/15 10:49:00;;;;;;;36.65;24.50;;;14.80;99.90;;;;;;5125045;22;20586;-56
2022/04/15 10:51:30;;;;;;;36.83;24.80;;;14.80;99.90;;;;;;5099779;28;20017;-56
2022/04/15 10:54:16;;;;;;;33.63;22.00;;;14.70;99.90;;;;;;5099637;28;20028;-56
2022/04/15 10:57:02;;;;;;;27.83;20.55;;;15.00;99.90;;;;;;5096879;28;20020;-57
2022/04/15 11:02:22;;;;;;;27.23;20.40;;;14.70;99.90;;;;;;5100125;28;20050;-59
2022/04/15 11:04:52;;;;;;;28.35;18.83;;;14.80;99.90;;;;;;5098193;28;20023;-58
2022/04/15 11:07:27;;;;;;;27.88;20.23;;;15.20;99.90;;;;;;5098530;28;20032;-57
2022/04/15 11:09:53;;;;;;;24.30;17.98;;;15.10;99.90;;;;;;5098490;28;20032;-56
2022/04/15 11:12:30;;;;;;;26.38;19.38;;;14.80;99.90;;;;;;5095361;28;20024;-58
2022/04/15 11:14:55;;;;;;;25.25;18.08;;;15.10;99.90;;;;;;5097180;28;20023;-58
2022/04/15 11:17:39;;;;;;;22.52;16.95;;;15.40;99.90;;;;;;5098158;28;20028;-58
2022/04/15 11:20:08;;;;;;;22.88;15.57;;;15.40;99.90;;;;;;5083104;28;20478;-56
2022/04/15 11:22:44;;;;;;;20.95;14.68;;;15.20;99.90;;;;;;5099443;28;20566;-60
2022/04/15 11:25:11;;;;;;;20.60;15.70;;;15.20;99.90;;;;;;5092211;28;20479;-58
2022/04/15 11:27:39;;;;;;;17.98;13.57;;;15.30;99.90;;;;;;5099553;28;20028;-58
2022/04/15 11:30:10;;;;;;;16.42;13.75;;;15.40;99.90;;;;;;5098245;28;20024;-60
2022/04/15 11:32:48;;;;;;;19.60;14.13;;;15.70;99.90;;;;;;5099317;28;20024;-57
2022/04/15 11:35:34;;;;;;;17.50;12.73;;;15.50;99.90;;;;;;5102343;28;20012;-57
2022/04/15 11:38:08;;;;;;;21.92;13.05;;;15.20;99.90;;;;;;5100654;28;20111;-55
2022/04/15 11:40:36;;;;;;;17.50;12.63;;;15.70;99.90;;;;;;5098038;28;20032;-57
2022/04/15 11:43:07;;;;;;;23.63;14.32;;;15.70;99.90;;;;;;5070828;28;20106;-57
2022/04/15 11:45:41;;;;;;;14.48;11.85;;;16.00;99.90;;;;;;5087181;28;20028;-56
2022/04/15 11:48:17;;;;;;;;;;;16.30;99.90;;;;;;5062336;28;20185;-55
2022/04/15 11:50:42;;;;;;;13.40;10.27;;;16.10;99.90;;;;;;5085966;28;20053;-56
2022/04/15 11:53:08;;;;;;;17.85;11.77;;;15.90;99.90;;;;;;5083757;28;20134;-60
2022/04/15 11:55:49;;;;;;;16.70;11.65;;;16.00;99.90;;;;;;5082491;28;20479;-56
2022/04/15 11:58:15;;;;;;;17.02;9.95;;;16.00;99.90;;;;;;5083372;28;20206;-55
2022/04/15 12:00:40;;;;;;;10.95;9.55;;;16.60;99.90;;;;;;5080635;28;20462;-56
2022/04/15 12:03:06;;;;;;;13.10;8.70;;;16.50;99.90;;;;;;5083682;28;20047;-56
2022/04/15 12:05:31;;;;;;;12.43;8.75;;;16.30;99.90;;;;;;5081463;28;20033;-58
2022/04/15 12:07:58;;;;;;;10.13;9.00;;;15.90;99.90;;;;;;5087763;28;20039;-54
2022/04/15 12:10:23;;;;;;;12.05;7.93;;;16.20;99.90;;;;;;5082562;28;20029;-56
2022/04/15 12:12:52;;;;;;;10.38;6.80;;;16.60;99.90;;;;;;5082872;28;20028;-58
2022/04/15 12:15:25;;;;;;;13.55;7.47;;;16.70;99.90;;;;;;5064675;28;20027;-58
2022/04/15 12:17:52;;;;;;;14.02;7.97;;;17.10;99.90;;;;;;5082130;28;20035;-57
2022/04/15 12:20:18;;;;;;;11.85;7.28;;;17.30;99.90;;;;;;5079220;28;20016;-55
2022/04/15 12:22:44;;;;;;;11.40;7.22;;;17.60;99.90;;;;;;5066941;28;20513;-55
2022/04/15 12:25:17;;;;;;;9.63;6.95;;;17.00;99.90;;;;;;5067442;28;20040;-56
2022/04/15 12:27:45;;;;;;;6.70;5.47;;;16.80;99.90;;;;;;5083866;28;20031;-55
2022/04/15 12:30:11;;;;;;;12.20;6.47;;;17.20;99.90;;;;;;5083496;28;20024;-56
2022/04/15 12:32:38;;;;;;;11.55;6.65;;;17.60;99.90;;;;;;5086232;28;20028;-55
2022/04/15 12:35:12;;;;;;;8.13;6.90;;;17.80;99.90;;;;;;5085066;28;20012;-56
2022/04/15 12:37:56;;;;;;;12.85;6.88;;;18.10;99.90;;;;;;5079877;28;20024;-57
2022/04/15 12:40:21;;;;;;;8.68;6.43;;;18.40;99.90;;;;;;5081669;28;20056;-57
2022/04/15 12:42:51;;;;;;;12.30;8.85;;;18.50;99.90;;;;;;5081202;28;20064;-57
2022/04/15 12:45:21;;;;;;;14.13;9.45;;;17.70;99.90;;;;;;5081630;28;20059;-56
2022/04/15 12:48:04;;;;;;;16.85;10.15;;;16.80;99.90;;;;;;5083371;28;20062;-54